KMVL/MVL METAR and TAF weather

Enter ICAO airport designator
Station Type Date Time Source
KMVL METAR 2021/07/24 19:54 UTC NOAA

KMVL 241954Z AUTO VRB05KT 10SM CLR 27/09 A3004 RMK AO2 SLP172 T02670089


Station Type Date Time Source
KMVL Decoded METAR 2021/07/24 19:54 UTC NOAA

MORRISVILLE STOWE STATE AIRPORT , VT, United States (KMVL) 44-32N 72-37W 223M
Jul 24, 2021 - 03:54 PM EDT / 2021.07.24 1954 UTC
Wind: Variable at 6 MPH (5 KT):0
Visibility: 10 mile(s):0
Sky conditions: clear
Temperature: 80.1 F (26.7 C)
Dew Point: 48.0 F (8.9 C)
Relative Humidity: 32%
Pressure (altimeter): 30.04 in. Hg (1017 hPa)
ob: KMVL 241954Z AUTO VRB05KT 10SM CLR 27/09 A3004 RMK AO2 SLP172 T02670089
cycle: 20

Station Type Date Time Source
KMVL TAF UTC NOAA

Error!

Example: see airport list